Time;durP1;ratioP1;P1;durP2;ratioP2;P2;SDS_P1;SDS_P2;PMS_P1;PMS_P2;Temp;Humidity;BMP_temperature;BMP_pressure;BME280_temperature;BME280_humidity;BME280_pressure;Samples;Min_cycle;Max_cycle;Signal;HPM_P1;HPM_P2
2021/12/24 00:01:04;;;;;;;289.48;75.55;;;;;;;6.69;100.00;100258.88;5015032;28;20402;-71
2021/12/24 00:03:29;;;;;;;216.10;68.05;;;;;;;6.70;100.00;100261.31;5031783;28;20044;-73
2021/12/24 00:05:55;;;;;;;208.43;67.45;;;;;;;6.75;100.00;100257.72;5034671;28;20794;-73
2021/12/24 00:08:20;;;;;;;208.52;65.20;;;;;;;6.73;100.00;100254.50;5033031;28;20142;-72
2021/12/24 00:10:50;;;;;;;214.82;63.75;;;;;;;6.73;100.00;100258.00;5034141;28;20084;-71
2021/12/24 00:13:17;;;;;;;186.75;64.07;;;;;;;6.83;100.00;100250.84;5036055;28;20544;-71
2021/12/24 00:16:04;;;;;;;185.13;60.95;;;;;;;6.83;100.00;100250.84;5035494;28;20045;-72
2021/12/24 00:35:15;;;;;;;189.43;63.95;;;;;;;7.03;100.00;100239.69;5034194;28;20037;-71
2021/12/24 00:37:44;;;;;;;207.63;67.22;;;;;;;6.97;100.00;100235.44;5033867;28;20071;-72
2021/12/24 00:40:16;;;;;;;219.88;68.00;;;;;;;6.98;100.00;100232.44;5033678;28;20413;-72
2021/12/24 00:42:44;;;;;;;206.95;64.55;;;;;;;7.01;100.00;100228.31;5032642;28;20456;-72
2021/12/24 00:45:12;;;;;;;215.90;66.60;;;;;;;7.03;100.00;100229.63;5033492;28;20524;-72
2021/12/24 00:47:37;;;;;;;189.73;65.80;;;;;;;7.08;100.00;100226.06;5033931;28;20041;-72
2021/12/24 00:50:07;;;;;;;184.75;60.80;;;;;;;7.15;100.00;100231.91;5032564;28;20048;-73
2021/12/24 00:55:03;;;;;;;186.05;62.17;;;;;;;7.12;100.00;100232.50;5030759;28;20577;-72
2021/12/24 00:55:27;;;;;;;187.80;61.45;;;;;;;7.16;100.00;100222.69;5025984;28;20060;-73
2021/12/24 00:57:57;;;;;;;185.32;62.13;;;;;;;7.17;100.00;100228.91;5015171;28;20455;-72
2021/12/24 01:00:33;;;;;;;201.43;61.30;;;;;;;7.21;100.00;100227.19;5031711;28;20036;-73
2021/12/24 01:03:01;;;;;;;215.50;62.90;;;;;;;7.24;100.00;100218.47;5020540;28;20050;-72
2021/12/24 01:05:31;;;;;;;201.30;62.03;;;;;;;7.23;100.00;100217.66;5011754;28;20437;-72
2021/12/24 01:07:57;;;;;;;199.32;61.63;;;;;;;7.29;100.00;100217.59;5014566;28;20474;-72
2021/12/24 01:10:29;;;;;;;184.98;60.03;;;;;;;7.28;100.00;100218.72;5012410;28;20045;-72
2021/12/24 01:12:55;;;;;;;208.27;62.60;;;;;;;7.26;100.00;100217.06;5014568;28;20542;-73
2021/12/24 01:15:21;;;;;;;212.70;65.18;;;;;;;7.31;100.00;100220.81;5012097;28;20091;-72
2021/12/24 01:21:00;;;;;;;176.90;60.30;;;;;;;7.34;100.00;100223.75;4955052;28;20045;-72
2021/12/24 01:24:02;;;;;;;197.02;64.45;;;;;;;7.37;100.00;100214.22;5005841;28;20053;-73
2021/12/24 01:29:19;;;;;;;171.43;58.42;;;;;;;7.47;100.00;100203.97;5012079;28;20045;-72
2021/12/24 01:42:48;;;;;;;201.10;61.70;;;;;;;7.60;100.00;100198.88;5015266;28;20045;-72
2021/12/24 01:45:18;;;;;;;178.55;57.10;;;;;;;7.64;100.00;100205.31;4999031;28;20040;-72
2021/12/24 01:47:43;;;;;;;156.60;53.97;;;;;;;7.59;100.00;100198.09;5035897;28;20040;-71
2021/12/24 01:50:09;;;;;;;150.57;53.22;;;;;;;7.70;100.00;100188.63;5019016;28;20040;-71
2021/12/24 01:52:35;;;;;;;172.10;57.38;;;;;;;7.64;100.00;100170.84;5028106;28;20045;-71
2021/12/24 01:55:01;;;;;;;164.90;53.85;;;;;;;7.75;100.00;100176.09;5029523;28;20132;-70
2021/12/24 01:57:27;;;;;;;146.88;51.88;;;;;;;7.77;100.00;100176.59;5031491;28;20743;-71
2021/12/24 01:59:53;;;;;;;151.70;52.15;;;;;;;7.79;100.00;100185.22;5029550;28;20573;-71
2021/12/24 02:02:19;;;;;;;153.82;51.50;;;;;;;7.80;100.00;100182.22;5037581;28;20041;-72
2021/12/24 02:04:44;;;;;;;150.27;52.10;;;;;;;7.88;100.00;100183.41;5052017;28;20252;-71
2021/12/24 02:07:09;;;;;;;152.20;50.15;;;;;;;7.85;100.00;100184.00;5052568;28;20044;-72
2021/12/24 02:09:36;;;;;;;162.82;53.40;;;;;;;7.85;100.00;100178.59;5052468;28;20083;-71
2021/12/24 02:12:05;;;;;;;143.05;51.38;;;;;;;7.86;100.00;100185.63;5051215;28;20057;-72
2021/12/24 02:14:36;;;;;;;130.18;46.50;;;;;;;7.96;100.00;100185.44;5037510;28;20040;-72
2021/12/24 02:30:54;;;;;;;135.10;48.10;;;;;;;8.11;100.00;100176.16;4987556;28;20096;-71
2021/12/24 02:33:21;;;;;;;145.95;47.53;;;;;;;8.13;100.00;100180.19;5015218;28;20108;-71
2021/12/24 02:35:46;;;;;;;150.57;49.33;;;;;;;8.18;100.00;100170.34;5043318;28;20040;-72
2021/12/24 02:38:11;;;;;;;159.23;50.58;;;;;;;8.24;100.00;100169.13;5044809;28;20060;-72
2021/12/24 02:40:38;;;;;;;139.93;48.83;;;;;;;8.25;100.00;100159.84;5042432;28;20041;-71
2021/12/24 02:43:05;;;;;;;154.77;50.33;;;;;;;8.32;100.00;100165.66;5041245;28;20073;-73
2021/12/24 02:45:33;;;;;;;156.88;48.72;;;;;;;8.34;100.00;100163.44;5039272;28;20037;-71
2021/12/24 02:56:04;;;;;;;183.90;51.92;;;;;;;8.44;100.00;100146.19;5017333;28;20119;-71
2021/12/24 02:58:58;;;;;;;157.48;50.83;;;;;;;8.42;100.00;100151.91;5016572;28;20160;-72
2021/12/24 03:01:29;;;;;;;165.57;51.50;;;;;;;8.46;100.00;100150.16;5016191;28;20552;-73
2021/12/24 03:03:55;;;;;;;172.65;55.90;;;;;;;8.46;100.00;100149.38;5016933;28;20410;-73
2021/12/24 03:06:26;;;;;;;183.95;53.42;;;;;;;8.46;100.00;100152.88;5016704;28;20041;-72
2021/12/24 03:08:52;;;;;;;171.05;53.92;;;;;;;8.50;100.00;100162.06;5017291;28;20060;-73
2021/12/24 03:11:18;;;;;;;174.23;54.80;;;;;;;8.53;100.00;100147.84;5016911;28;20471;-72
2021/12/24 03:13:44;;;;;;;182.45;52.80;;;;;;;8.52;100.00;100142.72;5016539;28;20048;-72
2021/12/24 03:16:10;;;;;;;190.73;55.78;;;;;;;8.53;100.00;100136.97;5014448;28;20111;-74
2021/12/24 03:18:38;;;;;;;194.60;56.45;;;;;;;8.67;100.00;100138.81;5014367;28;20526;-72
2021/12/24 03:21:18;;;;;;;226.38;59.30;;;;;;;8.54;100.00;100140.50;5016862;28;20266;-72
2021/12/24 03:26:31;;;;;;;229.68;61.55;;;;;;;8.54;100.00;100157.59;5016053;28;20577;-72
2021/12/24 03:28:57;;;;;;;236.30;65.65;;;;;;;8.59;100.00;100154.78;5014839;28;20052;-72
2021/12/24 03:31:22;;;;;;;214.45;61.55;;;;;;;8.63;100.00;100148.72;5015083;28;20041;-72
2021/12/24 03:33:49;;;;;;;218.35;60.15;;;;;;;8.60;100.00;100158.28;5015778;28;20046;-73
2021/12/24 03:36:14;;;;;;;227.77;66.18;;;;;;;8.70;100.00;100160.00;5014459;28;20298;-71
2021/12/24 03:38:41;;;;;;;215.43;63.80;;;;;;;8.61;100.00;100147.13;5013186;28;20041;-72
2021/12/24 03:41:06;;;;;;;227.07;65.65;;;;;;;8.72;100.00;100152.31;5015142;28;20695;-72
2021/12/24 03:43:32;;;;;;;238.38;67.07;;;;;;;8.70;100.00;100160.00;5015424;28;20447;-72
2021/12/24 03:46:03;;;;;;;197.52;58.47;;;;;;;8.60;100.00;100155.56;5021192;28;20048;-73
2021/12/24 03:56:29;;;;;;;216.93;64.32;;;;;;;8.74;100.00;100171.84;5013441;28;20614;-72
2021/12/24 03:58:56;;;;;;;231.90;66.47;;;;;;;8.71;100.00;100175.19;5015050;28;20698;-72
2021/12/24 04:01:41;;;;;;;213.88;63.35;;;;;;;8.70;100.00;100187.97;5017955;28;20211;-73
2021/12/24 04:04:39;;;;;;;165.43;58.38;;;;;;;8.72;100.00;100179.50;5012365;28;20722;-72
2021/12/24 04:07:14;;;;;;;181.60;56.33;;;;;;;8.77;100.00;100182.91;5035553;28;20527;-72
2021/12/24 04:10:39;;;;;;;182.80;57.60;;;;;;;8.77;100.00;100173.94;5034379;28;20928;-73
2021/12/24 04:13:16;;;;;;;172.48;56.47;;;;;;;8.77;100.00;100182.09;5035186;28;20122;-73
2021/12/24 04:15:42;;;;;;;148.40;53.88;;;;;;;8.81;100.00;100177.63;5035024;28;20541;-72
2021/12/24 04:18:29;;;;;;;163.20;55.15;;;;;;;8.72;100.00;100177.56;5016538;28;20052;-73
2021/12/24 04:26:31;;;;;;;142.57;48.95;;;;;;;8.77;100.00;100172.03;5034482;28;20064;-73
2021/12/24 04:28:57;;;;;;;145.93;50.83;;;;;;;8.79;100.00;100175.25;5033379;28;20049;-73
2021/12/24 04:31:30;;;;;;;140.35;50.25;;;;;;;8.82;100.00;100173.81;5034059;28;20425;-72
2021/12/24 04:34:16;;;;;;;142.73;46.95;;;;;;;8.76;100.00;100175.06;5035094;28;20052;-72
2021/12/24 04:37:10;;;;;;;134.73;48.75;;;;;;;8.79;100.00;100179.88;5031984;28;20049;-72
2021/12/24 05:03:43;;;;;;;108.22;37.42;;;;;;;8.86;100.00;100184.88;5032073;28;20037;-73
2021/12/24 05:11:15;;;;;;;104.72;37.20;;;;;;;8.83;100.00;100202.63;5032308;28;20126;-72
2021/12/24 05:13:41;;;;;;;112.82;38.15;;;;;;;8.77;100.00;100201.13;5031538;28;20190;-73
2021/12/24 05:21:50;;;;;;;107.93;37.80;;;;;;;8.92;100.00;100206.19;5014005;28;20057;-72
2021/12/24 05:24:18;;;;;;;103.15;36.92;;;;;;;8.83;100.00;100216.22;5033015;28;20037;-72
2021/12/24 05:26:49;;;;;;;96.30;34.70;;;;;;;8.85;100.00;100224.88;5031418;28;20083;-72
2021/12/24 05:29:16;;;;;;;104.72;38.13;;;;;;;8.84;100.00;100225.97;5032875;28;20040;-73
2021/12/24 05:31:42;;;;;;;92.13;35.53;;;;;;;8.82;100.00;100230.91;5033806;28;20431;-72
2021/12/24 05:34:08;;;;;;;92.10;38.03;;;;;;;8.80;100.00;100220.34;5032327;28;20060;-73
2021/12/24 05:36:34;;;;;;;102.47;36.13;;;;;;;8.86;100.00;100218.31;5033723;28;20126;-74
2021/12/24 05:39:00;;;;;;;95.63;37.85;;;;;;;8.84;100.00;100221.34;5033209;28;20064;-72
2021/12/24 05:41:26;;;;;;;90.03;36.22;;;;;;;8.79;100.00;100223.38;5031157;28;20033;-72
2021/12/24 05:43:51;;;;;;;75.03;33.67;;;;;;;8.81;100.00;100226.56;5031815;28;20049;-72
2021/12/24 05:46:17;;;;;;;93.45;34.65;;;;;;;8.82;100.00;100230.91;5033271;28;20041;-73
2021/12/24 05:48:50;;;;;;;85.43;32.63;;;;;;;8.84;100.00;100231.41;5033624;28;20493;-72
2021/12/24 05:51:17;;;;;;;82.88;32.70;;;;;;;8.73;100.00;100235.47;5036021;28;20075;-72
2021/12/24 05:53:46;;;;;;;73.15;30.90;;;;;;;8.80;100.00;100235.84;5037285;28;20063;-73
2021/12/24 05:56:16;;;;;;;79.70;30.08;;;;;;;8.79;100.00;100235.06;5036051;28;20551;-73
2021/12/24 05:58:45;;;;;;;73.15;30.92;;;;;;;8.72;100.00;100229.22;5035517;28;20037;-72
2021/12/24 06:01:11;;;;;;;70.65;29.63;;;;;;;8.68;100.00;100222.00;5035381;28;20068;-73
2021/12/24 06:03:41;;;;;;;81.13;31.05;;;;;;;8.77;100.00;100228.31;5016657;28;20080;-74
2021/12/24 06:06:06;;;;;;;71.22;31.08;;;;;;;8.74;100.00;100226.22;5016989;28;20046;-73
2021/12/24 06:08:32;;;;;;;68.45;28.98;;;;;;;8.83;100.00;100235.25;5017786;28;20044;-72
2021/12/24 06:10:57;;;;;;;72.85;30.40;;;;;;;8.73;100.00;100240.91;5018704;28;20262;-74
2021/12/24 06:13:24;;;;;;;85.68;31.35;;;;;;;8.72;100.00;100223.78;5017815;28;20045;-75
2021/12/24 06:15:51;;;;;;;82.63;31.65;;;;;;;8.72;100.00;100239.28;5017353;28;20045;-72
2021/12/24 06:18:27;;;;;;;83.22;29.80;;;;;;;8.72;100.00;100231.13;5017555;28;20038;-73
2021/12/24 06:20:55;;;;;;;85.43;29.92;;;;;;;8.77;100.00;100236.47;5017285;28;20046;-73
2021/12/24 06:23:22;;;;;;;59.65;27.23;;;;;;;8.65;100.00;100233.47;5021806;28;20612;-72
2021/12/24 06:25:49;;;;;;;72.35;28.55;;;;;;;8.68;100.00;100232.88;5015459;28;20044;-72
2021/12/24 06:28:15;;;;;;;60.50;27.58;;;;;;;8.64;100.00;100232.69;5017163;28;20616;-73
2021/12/24 06:30:41;;;;;;;63.92;25.90;;;;;;;8.61;100.00;100234.09;5019169;28;20179;-72
2021/12/24 06:33:07;;;;;;;60.97;26.42;;;;;;;8.67;100.00;100229.34;5018169;28;20140;-72
2021/12/24 06:35:33;;;;;;;67.30;27.20;;;;;;;8.64;100.00;100221.81;5016016;28;20045;-72
2021/12/24 06:37:58;;;;;;;79.05;27.70;;;;;;;8.63;100.00;100230.25;5015245;28;20064;-71
2021/12/24 06:40:24;;;;;;;69.22;25.67;;;;;;;8.61;100.00;100228.66;5017280;28;20045;-73
2021/12/24 06:42:50;;;;;;;65.70;25.33;;;;;;;8.65;100.00;100230.75;5015243;28;20414;-73
2021/12/24 06:45:22;;;;;;;57.95;23.83;;;;;;;8.58;100.00;100234.69;5018753;28;20140;-72
2021/12/24 06:47:49;;;;;;;67.68;25.40;;;;;;;8.60;100.00;100237.91;5038525;28;20466;-72
2021/12/24 06:50:15;;;;;;;55.30;24.38;;;;;;;8.55;100.00;100234.50;5021198;28;20057;-71
2021/12/24 06:52:40;;;;;;;54.88;24.42;;;;;;;8.61;100.00;100238.72;5017603;28;20454;-72
2021/12/24 06:55:06;;;;;;;73.63;23.77;;;;;;;8.52;100.00;100241.34;5017699;28;20064;-73
2021/12/24 06:57:35;;;;;;;55.88;23.65;;;;;;;8.50;100.00;100242.78;5018816;28;20049;-72
2021/12/24 07:00:01;;;;;;;50.92;22.63;;;;;;;8.54;100.00;100239.13;5003207;28;20041;-72
2021/12/24 07:02:26;;;;;;;57.65;23.17;;;;;;;8.52;100.00;100238.66;5029969;28;20499;-73
2021/12/24 07:04:52;;;;;;;48.65;22.67;;;;;;;8.54;100.00;100238.31;5048020;28;20095;-71
2021/12/24 07:07:17;;;;;;;54.00;22.48;;;;;;;8.46;100.00;100242.56;5053632;28;20075;-72
2021/12/24 07:09:42;;;;;;;62.42;22.10;;;;;;;8.46;100.00;100247.19;5055064;28;20040;-73
2021/12/24 07:12:13;;;;;;;48.00;21.40;;;;;;;8.51;100.00;100245.16;5054584;28;20048;-70
2021/12/24 07:14:40;;;;;;;44.85;20.40;;;;;;;8.48;100.00;100243.06;5054066;28;20044;-72
2021/12/24 07:17:07;;;;;;;50.58;18.92;;;;;;;8.49;100.00;100250.09;5053977;28;20056;-71
2021/12/24 07:19:32;;;;;;;48.92;17.65;;;;;;;8.54;100.00;100254.63;5053659;28;20041;-73
2021/12/24 07:21:58;;;;;;;63.25;19.88;;;;;;;8.49;100.00;100255.53;5054296;28;20106;-73
2021/12/24 07:24:23;;;;;;;54.25;19.65;;;;;;;8.44;100.00;100254.84;5052919;28;20048;-73
2021/12/24 07:26:49;;;;;;;47.70;18.75;;;;;;;8.46;100.00;100256.13;5050283;28;20044;-73
2021/12/24 07:29:14;;;;;;;53.85;17.63;;;;;;;8.44;100.00;100266.53;5050675;28;20041;-71
2021/12/24 07:31:40;;;;;;;50.72;18.30;;;;;;;8.47;100.00;100265.13;5050471;28;20044;-72
2021/12/24 07:34:05;;;;;;;47.15;18.70;;;;;;;8.41;100.00;100272.56;5035463;28;20066;-73
2021/12/24 07:36:31;;;;;;;55.45;19.30;;;;;;;8.44;100.00;100277.41;5028454;28;20068;-72
2021/12/24 07:38:56;;;;;;;44.83;18.33;;;;;;;8.39;100.00;100274.78;5024855;28;20075;-71
2021/12/24 07:41:24;;;;;;;49.80;17.55;;;;;;;8.45;100.00;100279.00;5023980;28;20052;-71
2021/12/24 07:43:49;;;;;;;44.17;17.88;;;;;;;8.37;100.00;100282.38;5025345;28;20230;-72
2021/12/24 07:46:15;;;;;;;54.58;18.52;;;;;;;8.42;100.00;100289.66;5026259;28;20052;-72
2021/12/24 07:48:47;;;;;;;51.53;19.83;;;;;;;8.29;100.00;100288.50;5027946;28;20045;-71
2021/12/24 07:54:00;;;;;;;47.90;18.60;;;;;;;8.28;100.00;100285.00;5018565;28;20056;-71
2021/12/24 07:56:27;;;;;;;55.13;20.17;;;;;;;8.21;100.00;100297.38;5016389;28;20379;-71
2021/12/24 07:58:53;;;;;;;53.97;19.83;;;;;;;8.25;100.00;100291.03;5015849;28;20047;-72
2021/12/24 08:01:18;;;;;;;61.70;19.85;;;;;;;8.24;100.00;100288.63;5019222;28;20045;-72
2021/12/24 08:03:45;;;;;;;61.13;22.23;;;;;;;8.22;100.00;100290.84;5025148;28;20071;-73
2021/12/24 08:06:10;;;;;;;49.30;19.20;;;;;;;8.21;100.00;100286.53;5014031;28;20049;-72
2021/12/24 08:08:36;;;;;;;65.00;20.17;;;;;;;8.28;100.00;100289.63;5014848;28;20033;-72
2021/12/24 08:11:01;;;;;;;51.67;19.88;;;;;;;8.24;100.00;100294.88;5015106;28;20268;-72
2021/12/24 08:13:26;;;;;;;61.83;21.30;;;;;;;8.20;100.00;100287.59;5015025;28;20238;-72
2021/12/24 08:15:54;;;;;;;58.00;22.77;;;;;;;8.20;100.00;100290.31;5014816;28;20091;-73
2021/12/24 08:18:19;;;;;;;57.45;23.10;;;;;;;8.13;100.00;100288.81;5014694;28;20051;-72
2021/12/24 08:20:45;;;;;;;61.83;22.92;;;;;;;8.25;100.00;100290.22;5027305;28;20041;-72
2021/12/24 08:23:10;;;;;;;58.58;23.17;;;;;;;8.16;100.00;100281.97;5030987;28;20045;-72
2021/12/24 08:25:36;;;;;;;62.05;23.80;;;;;;;8.24;100.00;100285.91;5034143;28;20045;-73
2021/12/24 08:28:01;;;;;;;65.90;25.40;;;;;;;8.20;100.00;100282.19;5035053;28;20028;-72
2021/12/24 08:30:27;;;;;;;73.00;26.42;;;;;;;8.20;100.00;100287.59;5034544;28;20397;-71
2021/12/24 08:32:54;;;;;;;60.35;24.13;;;;;;;8.24;100.00;100285.91;5034282;28;20059;-71
2021/12/24 08:35:24;;;;;;;72.30;23.80;;;;;;;8.17;100.00;100294.44;5032860;28;20037;-71
2021/12/24 08:37:49;;;;;;;66.32;26.85;;;;;;;8.16;100.00;100293.66;5034116;28;20118;-72
2021/12/24 08:40:15;;;;;;;62.38;25.33;;;;;;;8.18;100.00;100289.84;5026167;28;20045;-71
2021/12/24 08:42:41;;;;;;;71.85;26.23;;;;;;;8.15;100.00;100283.91;5030008;28;20043;-73
2021/12/24 08:45:08;;;;;;;78.97;26.50;;;;;;;8.10;100.00;100283.97;5029488;28;20072;-71
2021/12/24 08:47:33;;;;;;;70.35;26.17;;;;;;;8.14;100.00;100286.91;5031897;28;20171;-72
2021/12/24 08:49:59;;;;;;;66.18;27.88;;;;;;;8.09;100.00;100282.38;5029637;28;20049;-71
2021/12/24 08:52:24;;;;;;;77.75;29.08;;;;;;;8.07;100.00;100276.44;5016293;28;20029;-71
2021/12/24 08:54:50;;;;;;;68.53;27.20;;;;;;;8.10;100.00;100283.97;5029853;28;20446;-71
2021/12/24 08:57:15;;;;;;;81.90;27.77;;;;;;;8.07;100.00;100284.59;5023552;28;20810;-71
2021/12/24 08:59:42;;;;;;;77.07;29.25;;;;;;;8.07;100.00;100281.88;5017523;28;20045;-71
2021/12/24 09:02:08;;;;;;;72.03;28.60;;;;;;;8.08;100.00;100269.91;5024652;28;20048;-72
2021/12/24 09:04:33;;;;;;;60.92;25.40;;;;;;;8.13;100.00;100277.94;5018169;28;20033;-72
2021/12/24 09:07:00;;;;;;;65.97;26.48;;;;;;;8.12;100.00;100270.91;5019602;28;20042;-71
2021/12/24 09:09:27;;;;;;;67.70;27.10;;;;;;;8.14;100.00;100276.88;5015735;28;20128;-71
2021/12/24 09:11:53;;;;;;;73.75;27.90;;;;;;;8.10;100.00;100266.91;5040351;28;20250;-72
2021/12/24 09:14:19;;;;;;;71.18;29.58;;;;;;;8.10;100.00;100270.41;5033482;28;20264;-71
2021/12/24 09:16:47;;;;;;;83.72;27.98;;;;;;;8.08;100.00;100269.91;5046477;28;20049;-71
2021/12/24 09:19:16;;;;;;;84.53;27.35;;;;;;;8.13;100.00;100267.09;5023276;28;20039;-71
2021/12/24 09:21:42;;;;;;;88.35;29.58;;;;;;;8.10;100.00;100264.97;5037443;28;20048;-71
2021/12/24 09:24:08;;;;;;;83.63;29.10;;;;;;;8.10;100.00;100259.53;5034113;28;20075;-71
2021/12/24 09:26:36;;;;;;;82.72;28.25;;;;;;;8.19;100.00;100262.38;5033112;28;20048;-72
2021/12/24 09:29:04;;;;;;;84.25;29.25;;;;;;;8.13;100.00;100258.94;5042552;28;20698;-72
2021/12/24 09:31:29;;;;;;;89.63;28.65;;;;;;;8.12;100.00;100260.06;5037152;28;20040;-72
2021/12/24 09:33:55;;;;;;;89.03;29.25;;;;;;;8.22;100.00;100253.63;5036307;28;20383;-72
2021/12/24 09:36:26;;;;;;;81.70;26.90;;;;;;;8.23;100.00;100259.84;5034307;28;20398;-71
2021/12/24 09:38:53;;;;;;;86.18;26.38;;;;;;;8.23;100.00;100257.13;5026982;28;20056;-71
2021/12/24 09:41:19;;;;;;;76.00;25.58;;;;;;;8.20;100.00;100260.44;5030689;28;20155;-72
2021/12/24 09:43:45;;;;;;;59.47;24.45;;;;;;;8.34;100.00;100255.81;5038479;28;20143;-71
2021/12/24 09:46:12;;;;;;;61.50;23.00;;;;;;;8.30;100.00;100257.53;5039734;28;20425;-72
2021/12/24 09:48:38;;;;;;;64.90;24.45;;;;;;;8.35;100.00;100260.16;5043941;28;20095;-72
2021/12/24 09:51:04;;;;;;;61.25;22.92;;;;;;;8.33;100.00;100259.66;5011413;28;20041;-71
2021/12/24 09:53:29;;;;;;;57.75;22.75;;;;;;;8.31;100.00;100253.72;5023302;28;20044;-72
2021/12/24 09:55:55;;;;;;;68.40;24.85;;;;;;;8.30;100.00;100255.63;5047264;28;20546;-71
2021/12/24 09:58:21;;;;;;;61.50;22.60;;;;;;;8.29;100.00;100253.19;5045980;28;20905;-72
2021/12/24 10:00:46;;;;;;;60.33;21.13;;;;;;;8.43;100.00;100248.59;5051246;28;20162;-72
2021/12/24 10:03:27;;;;;;;64.68;22.98;;;;;;;8.43;100.00;100248.59;5018339;28;20128;-71
2021/12/24 10:05:54;;;;;;;56.88;21.58;;;;;;;8.50;100.00;100243.56;5016242;28;20084;-72
2021/12/24 10:08:22;;;;;;;49.42;21.38;;;;;;;8.46;100.00;100236.31;5018321;28;20049;-71
2021/12/24 10:10:51;;;;;;;57.42;20.83;;;;;;;8.47;100.00;100249.63;5012226;28;20037;-71
2021/12/24 10:14:03;;;;;;;65.90;21.67;;;;;;;8.50;100.00;100238.13;5019013;28;20412;-71
2021/12/24 10:16:28;;;;;;;53.88;21.73;;;;;;;8.49;100.00;100241.94;4967968;28;20134;-71
2021/12/24 10:18:58;;;;;;;60.42;22.80;;;;;;;8.37;100.00;100247.06;4948727;28;20042;-72
2021/12/24 10:21:29;;;;;;;60.63;24.65;;;;;;;8.44;100.00;100249.41;4993561;28;20095;-71
2021/12/24 10:24:17;;;;;;;55.55;21.25;;;;;;;8.51;100.00;100253.31;5026356;28;20044;-71
2021/12/24 10:26:47;;;;;;;75.47;24.88;;;;;;;8.47;100.00;100249.63;5024774;28;20546;-72
2021/12/24 10:29:26;;;;;;;63.70;21.80;;;;;;;8.45;100.00;100251.81;5039703;28;20037;-71
2021/12/24 10:31:56;;;;;;;68.82;24.40;;;;;;;8.51;100.00;100249.81;5045775;28;20637;-71
2021/12/24 10:34:29;;;;;;;84.13;27.60;;;;;;;8.54;100.00;100252.72;5033980;28;20053;-72
2021/12/24 10:36:59;;;;;;;76.38;25.38;;;;;;;8.49;100.00;100247.38;5035086;28;20535;-72
2021/12/24 10:39:26;;;;;;;63.33;26.20;;;;;;;8.44;100.00;100252.13;5045071;28;20533;-71
2021/12/24 10:41:53;;;;;;;61.85;24.27;;;;;;;8.39;100.00;100258.47;5040092;28;20461;-72
2021/12/24 10:44:28;;;;;;;73.35;23.75;;;;;;;8.46;100.00;100264.28;5035631;28;20452;-70
2021/12/24 10:46:59;;;;;;;67.35;23.80;;;;;;;8.53;100.00;100258.47;5036129;28;20044;-71
2021/12/24 10:50:13;;;;;;;73.93;24.92;;;;;;;8.55;100.00;100250.78;5040046;28;20044;-71
2021/12/24 10:55:06;;;;;;;73.53;23.48;;;;;;;8.50;100.00;100248.22;5017086;28;20045;-72
2021/12/24 10:57:34;;;;;;;77.47;24.40;;;;;;;8.45;100.00;100251.03;5022332;28;20041;-72
2021/12/24 11:00:05;;;;;;;71.97;24.00;;;;;;;8.44;100.00;100235.84;5014257;28;20038;-72
2021/12/24 11:02:33;;;;;;;76.97;24.38;;;;;;;8.42;100.00;100241.56;5028475;28;20334;-72
2021/12/24 11:04:59;;;;;;;61.13;23.90;;;;;;;8.41;100.00;100245.41;5038972;28;20037;-72
2021/12/24 11:07:42;;;;;;;65.93;23.15;;;;;;;8.33;100.00;100240.63;5036238;28;20047;-72
2021/12/24 11:10:13;;;;;;;65.97;23.55;;;;;;;8.39;100.00;100242.16;5038029;28;20528;-74
2021/12/24 11:12:47;;;;;;;66.63;21.85;;;;;;;8.48;100.00;100239.53;5033096;28;20424;-72
2021/12/24 11:15:28;;;;;;;66.63;21.02;;;;;;;8.39;100.00;100236.72;5028530;28;20501;-72
2021/12/24 11:17:57;;;;;;;56.55;20.98;;;;;;;8.46;100.00;100237.13;5021804;28;20473;-72
2021/12/24 11:20:23;;;;;;;60.72;21.40;;;;;;;8.51;100.00;100234.28;5049069;28;20444;-72
2021/12/24 11:23:07;;;;;;;50.72;21.10;;;;;;;8.55;100.00;100237.19;5012513;28;20504;-72
2021/12/24 11:25:45;;;;;;;46.90;20.90;;;;;;;8.59;100.00;100233.59;5024051;28;20040;-72
2021/12/24 11:28:13;;;;;;;65.35;21.27;;;;;;;8.63;100.00;100235.69;5034423;28;20492;-72
2021/12/24 11:30:45;;;;;;;67.45;22.20;;;;;;;8.67;100.00;100242.94;5017419;28;20037;-73
2021/12/24 11:33:15;;;;;;;58.97;21.73;;;;;;;8.67;100.00;100242.13;5032736;28;20577;-72
2021/12/24 11:35:43;;;;;;;76.05;20.33;;;;;;;8.63;100.00;100238.41;5034820;28;20170;-72
2021/12/24 11:38:14;;;;;;;70.00;20.75;;;;;;;8.67;100.00;100252.97;5032504;28;20110;-72
2021/12/24 11:40:40;;;;;;;50.10;19.17;;;;;;;8.67;100.00;100242.94;5021057;28;20124;-73
2021/12/24 11:43:06;;;;;;;66.30;21.23;;;;;;;8.66;100.00;100244.03;5033545;28;20041;-73
2021/12/24 11:45:33;;;;;;;59.05;21.20;;;;;;;8.71;100.00;100237.69;5032610;28;20041;-73
2021/12/24 11:48:01;;;;;;;52.13;18.10;;;;;;;8.64;100.00;100237.28;5049324;28;20082;-72
2021/12/24 11:50:28;;;;;;;61.15;18.95;;;;;;;8.88;100.00;100235.13;5035609;28;20125;-72
2021/12/24 11:53:01;;;;;;;45.33;17.27;;;;;;;9.03;100.00;100233.97;5047465;28;20140;-72
2021/12/24 11:55:33;;;;;;;39.38;15.35;;;;;;;9.07;100.00;100232.22;5032116;28;20048;-72
2021/12/24 11:58:01;;;;;;;50.72;14.85;;;;;;;9.23;100.00;100232.69;5033553;28;20048;-72
2021/12/24 12:00:36;;;;;;;45.65;15.65;;;;;;;9.35;100.00;100235.63;5035770;28;20045;-72
2021/12/24 12:03:02;;;;;;;39.92;13.60;;;;;;;9.22;100.00;100231.88;5033938;28;20378;-72
2021/12/24 12:05:32;;;;;;;48.78;14.82;;;;;;;9.37;100.00;100236.13;5045693;28;20497;-72
2021/12/24 12:08:22;;;;;;;41.47;13.15;;;;;;;9.16;100.00;100222.25;5055309;28;20048;-72
2021/12/24 12:11:14;;;;;;;47.25;14.98;;;;;;;9.17;100.00;100223.03;5037281;28;20078;-72
2021/12/24 12:13:46;;;;;;;53.58;13.73;;;;;;;9.16;100.00;100226.84;5063235;28;20130;-72
2021/12/24 12:16:15;;;;;;;33.50;12.27;;;;;;;9.11;100.00;100218.84;5035555;28;20069;-71
2021/12/24 12:18:48;;;;;;;43.95;13.57;;;;;;;9.09;100.00;100221.06;5069153;28;20119;-71
2021/12/24 12:21:34;;;;;;;38.00;13.75;;;;;;;9.18;100.00;100224.63;5060110;28;20041;-72
2021/12/24 12:24:57;;;;;;;35.47;14.38;;;;;;;8.93;100.00;100229.59;5049959;28;20324;-71
2021/12/24 12:26:52;;;;;;;48.05;14.38;;;;;;;8.95;100.00;100216.47;5046376;28;20048;-71
2021/12/24 12:29:26;;;;;;;58.78;15.48;;;;;;;9.00;100.00;100218.25;5038732;28;20044;-70
2021/12/24 12:32:03;;;;;;;46.83;15.18;;;;;;;8.87;100.00;100219.91;5045493;28;20048;-71
2021/12/24 12:34:38;;;;;;;43.60;15.70;;;;;;;8.90;100.00;100208.44;5040025;28;20255;-71
2021/12/24 12:37:29;;;;;;;51.15;17.38;;;;;;;8.90;100.00;100218.50;5032249;28;20044;-71
2021/12/24 12:39:55;;;;;;;61.78;20.42;;;;;;;8.93;100.00;100223.31;5028520;28;20404;-72
2021/12/24 12:42:41;;;;;;;48.90;18.13;;;;;;;8.92;100.00;100211.63;5044203;28;20140;-71
2021/12/24 12:45:07;;;;;;;54.88;19.92;;;;;;;8.81;100.00;100226.56;5042445;28;20041;-72
2021/12/24 12:47:51;;;;;;;53.75;19.67;;;;;;;8.89;100.00;100228.56;5045460;28;20047;-71
2021/12/24 12:50:17;;;;;;;61.38;20.40;;;;;;;8.79;100.00;100220.66;5043614;28;20044;-72
2021/12/24 12:52:43;;;;;;;52.80;20.38;;;;;;;8.72;100.00;100217.53;5027353;28;20033;-72
2021/12/24 12:55:32;;;;;;;56.17;21.77;;;;;;;8.73;100.00;100216.44;5046018;28;20064;-71
2021/12/24 12:58:24;;;;;;;53.80;20.60;;;;;;;8.74;100.00;100220.75;5056737;28;20070;-71
2021/12/24 13:01:06;;;;;;;53.10;21.45;;;;;;;8.67;100.00;100226.63;5037501;28;20051;-71
2021/12/24 13:03:33;;;;;;;57.05;22.67;;;;;;;8.73;100.00;100221.88;5021969;28;20049;-70
2021/12/24 13:06:08;;;;;;;56.83;21.10;;;;;;;8.80;100.00;100219.53;5030175;28;20044;-71
2021/12/24 13:08:37;;;;;;;50.70;20.75;;;;;;;8.88;100.00;100223.44;5026937;28;20040;-71
2021/12/24 13:11:09;;;;;;;63.92;22.70;;;;;;;8.77;100.00;100212.00;5015169;28;20046;-71